Time;durP1;ratioP1;P1;durP2;ratioP2;P2;SDS_P1;SDS_P2;PMS_P1;PMS_P2;Temp;Humidity;BMP_temperature;BMP_pressure;BME280_temperature;BME280_humidity;BME280_pressure;Samples;Min_cycle;Max_cycle;Signal;HPM_P1;HPM_P2
2021/05/23 00:00:42;;;;;;;;;;;18.90;30.00;;;;;;5034278;28;74441;-69
2021/05/23 00:03:12;;;;;;;;;;;18.90;30.10;;;;;;5034131;28;75125;-68
2021/05/23 00:05:39;;;;;;;;;;;18.90;30.10;;;;;;5032283;28;78042;-68
2021/05/23 00:08:09;;;;;;;;;;;18.90;30.20;;;;;;5033990;28;75067;-68
2021/05/23 00:10:36;;;;;;;;;;;18.90;30.40;;;;;;5032243;28;75047;-68
2021/05/23 00:13:04;;;;;;;;;;;18.80;30.50;;;;;;5032753;28;75397;-68
2021/05/23 00:15:32;;;;;;;;;;;18.80;30.40;;;;;;5033840;28;75069;-67
2021/05/23 00:17:58;;;;;;;;;;;18.80;30.40;;;;;;5032117;28;76496;-67
2021/05/23 00:20:25;;;;;;;;;;;18.80;30.30;;;;;;5032216;28;76243;-68
2021/05/23 00:22:50;;;;;;;;;;;18.80;30.30;;;;;;5031791;28;77426;-68
2021/05/23 00:25:21;;;;;;;;;;;18.80;30.30;;;;;;5032084;28;76219;-68
2021/05/23 00:27:47;;;;;;;;;;;18.70;30.40;;;;;;5034167;28;74443;-67
2021/05/23 00:30:14;;;;;;;;;;;18.70;30.40;;;;;;5031890;28;76697;-67
2021/05/23 00:32:39;;;;;;;;;;;18.60;30.60;;;;;;5032579;28;78440;-67
2021/05/23 00:35:05;;;;;;;;;;;18.50;30.60;;;;;;5031600;28;74580;-68
2021/05/23 00:37:31;;;;;;;;;;;18.50;30.90;;;;;;5033171;28;75675;-67
2021/05/23 00:39:56;;;;;;;;;;;18.40;31.00;;;;;;5033161;28;75183;-67
2021/05/23 00:42:22;;;;;;;;;;;18.40;31.00;;;;;;5031790;28;74628;-68
2021/05/23 00:44:48;;;;;;;;;;;18.40;31.10;;;;;;5031786;28;77918;-68
2021/05/23 00:47:13;;;;;;;;;;;18.40;31.10;;;;;;5031704;28;76500;-67
2021/05/23 00:49:39;;;;;;;;;;;18.30;31.20;;;;;;5031822;28;76395;-68
2021/05/23 00:52:06;;;;;;;;;;;18.30;31.30;;;;;;5033487;28;75253;-67
2021/05/23 00:54:32;;;;;;;;;;;18.40;30.90;;;;;;5032972;28;75973;-67
2021/05/23 00:56:58;;;;;;;;;;;18.30;31.50;;;;;;5032955;28;75096;-67
2021/05/23 00:59:23;;;;;;;;;;;18.20;31.40;;;;;;5031768;28;77656;-67
2021/05/23 01:02:10;;;;;;;;;;;18.20;31.60;;;;;;5031553;28;77803;-66
2021/05/23 01:04:39;;;;;;;;;;;18.20;31.20;;;;;;5032761;28;75134;-66
2021/05/23 01:07:04;;;;;;;;;;;18.20;31.50;;;;;;5030337;28;75858;-67
2021/05/23 01:09:30;;;;;;;;;;;18.20;31.40;;;;;;5032922;28;75182;-66
2021/05/23 01:12:14;;;;;;;;;;;18.20;31.60;;;;;;5032548;28;75179;-67
2021/05/23 01:14:45;;;;;;;;;;;18.20;31.60;;;;;;5030988;28;76923;-68
2021/05/23 01:17:12;;;;;;;;;;;18.20;31.70;;;;;;5031295;28;77658;-66
2021/05/23 01:20:10;;;;;;;;;;;18.20;31.80;;;;;;5031059;28;77806;-66
2021/05/23 01:22:42;;;;;;;;;;;18.20;31.80;;;;;;5019712;28;77881;-67
2021/05/23 01:25:17;;;;;;;;;;;18.20;32.00;;;;;;5032993;28;74858;-67
2021/05/23 01:27:45;;;;;;;;;;;18.10;32.30;;;;;;5032657;28;75212;-69
2021/05/23 01:30:13;;;;;;;;;;;18.00;32.20;;;;;;5032749;28;75210;-68
2021/05/23 01:32:41;;;;;;;;;;;18.00;32.20;;;;;;5031165;28;76179;-67
2021/05/23 01:35:08;;;;;;;;;;;18.00;32.40;;;;;;5032592;28;74905;-68
2021/05/23 01:37:35;;;;;;;;;;;18.00;32.20;;;;;;5030868;28;77696;-68
2021/05/23 01:40:00;;;;;;;;;;;17.90;32.50;;;;;;5031374;28;78065;-68
2021/05/23 01:42:26;;;;;;;;;;;17.90;32.70;;;;;;5031041;28;76108;-68
2021/05/23 01:44:52;;;;;;;;;;;17.80;32.70;;;;;;5030708;28;76550;-68
2021/05/23 01:47:18;;;;;;;;;;;17.80;32.80;;;;;;5032500;28;74991;-68
2021/05/23 01:49:43;;;;;;;;;;;17.70;33.00;;;;;;5030965;28;75409;-67
2021/05/23 01:52:09;;;;;;;;;;;17.70;33.10;;;;;;5030811;28;77298;-67
2021/05/23 01:54:35;;;;;;;;;;;17.70;33.70;;;;;;5030592;28;77894;-69
2021/05/23 01:57:01;;;;;;;;;;;17.60;33.20;;;;;;5032376;28;74385;-67
2021/05/23 01:59:26;;;;;;;;;;;17.60;33.40;;;;;;5030894;28;77357;-68
2021/05/23 02:01:52;;;;;;;;;;;17.50;33.10;;;;;;5030679;28;77164;-68
2021/05/23 02:04:17;;;;;;;;;;;17.50;33.50;;;;;;5032330;28;75103;-68
2021/05/23 02:06:43;;;;;;;;;;;17.50;33.30;;;;;;5030695;28;75700;-68
2021/05/23 02:09:09;;;;;;;;;;;17.50;33.80;;;;;;5032503;28;75225;-66
2021/05/23 02:11:34;;;;;;;;;;;17.60;33.40;;;;;;5030004;28;77395;-69
2021/05/23 02:14:00;;;;;;;;;;;17.50;33.60;;;;;;5030695;28;77156;-66
2021/05/23 02:16:25;;;;;;;;;;;17.50;33.50;;;;;;5032214;28;75140;-66
2021/05/23 02:18:51;;;;;;;;;;;17.50;33.90;;;;;;5032123;28;76372;-66
2021/05/23 02:21:17;;;;;;;;;;;17.40;33.80;;;;;;5034064;28;77935;-67
2021/05/23 02:23:49;;;;;;;;;;;17.40;33.70;;;;;;5033986;28;77846;-66
2021/05/23 02:26:15;;;;;;;;;;;17.40;33.90;;;;;;5033984;28;78571;-67
2021/05/23 02:28:40;;;;;;;;;;;17.40;33.90;;;;;;5033959;28;76492;-67
2021/05/23 02:31:06;;;;;;;;;;;17.30;33.90;;;;;;5035493;28;75442;-67
2021/05/23 02:33:32;;;;;;;;;;;17.40;34.00;;;;;;5035583;28;75040;-67
2021/05/23 02:35:58;;;;;;;;;;;17.40;34.00;;;;;;5035206;28;75095;-66
2021/05/23 02:38:23;;;;;;;;;;;17.40;33.70;;;;;;5036010;28;74476;-66
2021/05/23 02:40:50;;;;;;;;;;;17.40;33.80;;;;;;5033467;28;77566;-66
2021/05/23 02:43:17;;;;;;;;;;;17.40;33.80;;;;;;5033735;28;76293;-66
2021/05/23 02:45:43;;;;;;;;;;;17.40;33.90;;;;;;5035318;28;75368;-66
2021/05/23 02:48:09;;;;;;;;;;;17.30;33.90;;;;;;5035278;28;75196;-67
2021/05/23 02:50:37;;;;;;;;;;;17.30;33.70;;;;;;5035369;28;74911;-67
2021/05/23 02:53:05;;;;;;;;;;;17.30;33.80;;;;;;5035061;28;75551;-67
2021/05/23 02:55:31;;;;;;;;;;;17.40;33.90;;;;;;5033406;28;75293;-67
2021/05/23 02:57:57;;;;;;;;;;;17.40;33.90;;;;;;5034973;28;74923;-67
2021/05/23 03:00:22;;;;;;;;;;;17.30;34.00;;;;;;5035091;28;74987;-68
2021/05/23 03:02:49;;;;;;;;;;;17.30;34.00;;;;;;5033563;28;75347;-67
2021/05/23 03:05:16;;;;;;;;;;;17.40;33.90;;;;;;5034759;28;75744;-67
2021/05/23 03:07:43;;;;;;;;;;;17.30;33.80;;;;;;5035049;28;75303;-68
2021/05/23 03:10:10;;;;;;;;;;;17.30;34.00;;;;;;5034888;28;75204;-67
2021/05/23 03:12:36;;;;;;;;;;;17.20;34.00;;;;;;5034219;28;76724;-67
2021/05/23 03:15:02;;;;;;;;;;;17.20;34.10;;;;;;5033055;28;76540;-67
2021/05/23 03:17:28;;;;;;;;;;;17.20;34.20;;;;;;5033283;28;75928;-67
2021/05/23 03:19:53;;;;;;;;;;;17.10;34.20;;;;;;5034784;28;75303;-68
2021/05/23 03:22:19;;;;;;;;;;;17.20;34.20;;;;;;5034454;28;75391;-67
2021/05/23 03:24:45;;;;;;;;;;;17.20;34.10;;;;;;5034786;28;75196;-67
2021/05/23 03:27:10;;;;;;;;;;;17.20;34.10;;;;;;5032954;28;75596;-67
2021/05/23 03:29:36;;;;;;;;;;;17.20;34.00;;;;;;5033485;28;75263;-67
2021/05/23 03:32:01;;;;;;;;;;;17.20;34.20;;;;;;5032708;28;76452;-67
2021/05/23 03:34:27;;;;;;;;;;;17.20;34.20;;;;;;5032952;28;75888;-66
2021/05/23 03:36:53;;;;;;;;;;;17.10;34.40;;;;;;5032790;28;77118;-66
2021/05/23 03:39:18;;;;;;;;;;;17.10;34.50;;;;;;5034219;28;75494;-67
2021/05/23 03:41:44;;;;;;;;;;;17.00;34.70;;;;;;5034333;28;75196;-67
2021/05/23 03:44:09;;;;;;;;;;;17.00;34.50;;;;;;5034401;28;75070;-68
2021/05/23 03:46:35;;;;;;;;;;;17.00;34.80;;;;;;5034749;28;75678;-67
2021/05/23 03:49:01;;;;;;;;;;;16.90;34.60;;;;;;5034582;28;74434;-67
2021/05/23 03:51:28;;;;;;;;;;;16.90;35.10;;;;;;5032589;28;77427;-67
2021/05/23 03:53:53;;;;;;;;;;;17.00;35.20;;;;;;5034283;28;75193;-67
2021/05/23 03:56:19;;;;;;;;;;;16.90;35.40;;;;;;5032025;28;76114;-68
2021/05/23 03:58:44;;;;;;;;;;;16.90;35.30;;;;;;5034234;28;75433;-67
2021/05/23 04:01:10;;;;;;;;;;;16.90;35.40;;;;;;5034247;28;74544;-67
2021/05/23 04:03:36;;;;;;;;;;;16.90;35.50;;;;;;5034123;28;75450;-66
2021/05/23 04:06:01;;;;;;;;;;;16.90;35.90;;;;;;5033957;28;75786;-67
2021/05/23 04:08:27;;;;;;;;;;;16.80;35.90;;;;;;5032193;28;77747;-66
2021/05/23 04:10:59;;;;;;;;;;;16.80;35.80;;;;;;5031999;28;76787;-67
2021/05/23 04:13:25;;;;;;;;;;;16.80;36.10;;;;;;5032195;28;75807;-67
2021/05/23 04:15:51;;;;;;;;;;;16.80;36.10;;;;;;5033733;28;75162;-66
2021/05/23 04:18:16;;;;;;;;;;;16.80;36.00;;;;;;5032280;28;77555;-66
2021/05/23 04:20:42;;;;;;;;;;;16.80;35.90;;;;;;5034579;28;74584;-68
2021/05/23 04:23:07;;;;;;;;;;;16.80;36.00;;;;;;5032080;28;76530;-68
2021/05/23 04:25:33;;;;;;;;;;;16.80;36.00;;;;;;5031837;28;75394;-67
2021/05/23 04:27:59;;;;;;;;;;;16.70;36.30;;;;;;5034372;28;74440;-67
2021/05/23 04:30:25;;;;;;;;;;;16.70;36.30;;;;;;5032122;28;78268;-68
2021/05/23 04:32:51;;;;;;;;;;;16.70;36.40;;;;;;5033603;28;75228;-67
2021/05/23 04:35:17;;;;;;;;;;;16.70;36.00;;;;;;5033575;28;74428;-66
2021/05/23 04:37:43;;;;;;;;;;;16.70;36.40;;;;;;5033701;28;74990;-67
2021/05/23 04:40:09;;;;;;;;;;;16.70;36.60;;;;;;5031946;28;77329;-67
2021/05/23 04:42:35;;;;;;;;;;;16.70;36.70;;;;;;5033045;28;75164;-68
2021/05/23 04:45:01;;;;;;;;;;;16.70;36.80;;;;;;5031939;28;75991;-68
2021/05/23 04:47:27;;;;;;;;;;;16.70;37.00;;;;;;5031722;28;76534;-67
2021/05/23 04:49:53;;;;;;;;;;;16.70;37.30;;;;;;5032088;28;75413;-68
2021/05/23 04:52:18;;;;;;;;;;;16.70;37.30;;;;;;5031732;28;77176;-67
2021/05/23 04:54:44;;;;;;;;;;;16.60;37.20;;;;;;5031771;28;77182;-66
2021/05/23 04:57:10;;;;;;;;;;;16.60;37.50;;;;;;5033105;28;75228;-66
2021/05/23 04:59:36;;;;;;;;;;;16.60;37.80;;;;;;5031432;28;76130;-66
2021/05/23 05:02:01;;;;;;;;;;;16.60;38.40;;;;;;5031899;28;76339;-66
2021/05/23 05:04:27;;;;;;;;;;;16.50;38.00;;;;;;5031263;28;77438;-66
2021/05/23 05:06:53;;;;;;;;;;;16.50;38.00;;;;;;5033636;28;74468;-67
2021/05/23 05:09:18;;;;;;;;;;;16.50;38.50;;;;;;5033211;28;74891;-68
2021/05/23 05:11:44;;;;;;;;;;;16.50;38.80;;;;;;5032305;28;75275;-68
2021/05/23 05:14:10;;;;;;;;;;;16.50;38.90;;;;;;5031556;28;74704;-68
2021/05/23 05:16:37;;;;;;;;;;;16.50;38.80;;;;;;5031284;28;77575;-67
2021/05/23 05:19:02;;;;;;;;;;;16.40;39.10;;;;;;5031618;28;78041;-67
2021/05/23 05:21:28;;;;;;;;;;;16.40;39.10;;;;;;5031414;28;75463;-67
2021/05/23 05:23:54;;;;;;;;;;;16.40;39.60;;;;;;5031261;28;77291;-67
2021/05/23 05:26:19;;;;;;;;;;;16.40;39.00;;;;;;5031165;28;77901;-66
2021/05/23 05:28:45;;;;;;;;;;;16.40;39.70;;;;;;5031307;28;76735;-68
2021/05/23 05:31:11;;;;;;;;;;;16.40;39.70;;;;;;5032909;28;75197;-67
2021/05/23 05:33:36;;;;;;;;;;;16.40;40.00;;;;;;5030963;28;77403;-68
2021/05/23 05:36:02;;;;;;;;;;;16.40;40.00;;;;;;5031374;28;78300;-68
2021/05/23 05:38:28;;;;;;;;;;;16.40;40.00;;;;;;5032940;28;74530;-67
2021/05/23 05:40:53;;;;;;;;;;;16.50;39.90;;;;;;5032661;28;75233;-67
2021/05/23 05:43:19;;;;;;;;;;;16.40;40.20;;;;;;5033113;28;75123;-68
2021/05/23 05:45:44;;;;;;;;;;;16.40;40.30;;;;;;5030858;28;77309;-67
2021/05/23 05:48:10;;;;;;;;;;;16.50;40.70;;;;;;5031034;28;77236;-68
2021/05/23 05:50:36;;;;;;;;;;;16.50;40.40;;;;;;5032357;28;75507;-68
2021/05/23 05:53:01;;;;;;;;;;;16.50;40.30;;;;;;5031553;28;75490;-68
2021/05/23 05:55:27;;;;;;;;;;;16.50;40.40;;;;;;5035814;28;75225;-68
2021/05/23 05:57:52;;;;;;;;;;;16.60;40.50;;;;;;5036462;28;74370;-67
2021/05/23 06:00:18;;;;;;;;;;;16.60;40.70;;;;;;5036070;28;75323;-67
2021/05/23 06:02:44;;;;;;;;;;;16.60;40.70;;;;;;5035660;28;74845;-67
2021/05/23 06:05:10;;;;;;;;;;;16.60;40.50;;;;;;5034329;28;75687;-69
2021/05/23 06:07:35;;;;;;;;;;;16.60;40.70;;;;;;5035873;28;75032;-67
2021/05/23 06:10:01;;;;;;;;;;;16.60;40.90;;;;;;5034510;28;74687;-66
2021/05/23 06:12:27;;;;;;;;;;;16.60;41.00;;;;;;5033948;28;78638;-67
2021/05/23 06:14:52;;;;;;;;;;;16.60;40.70;;;;;;5034200;28;76303;-67
2021/05/23 06:17:18;;;;;;;;;;;16.70;40.90;;;;;;5036076;28;75001;-67
2021/05/23 06:19:44;;;;;;;;;;;16.70;41.00;;;;;;5033882;28;76882;-67
2021/05/23 06:22:09;;;;;;;;;;;16.70;41.20;;;;;;5036096;28;74366;-67
2021/05/23 06:24:35;;;;;;;;;;;16.70;41.00;;;;;;5035172;28;76332;-67
2021/05/23 06:27:00;;;;;;;;;;;16.70;40.90;;;;;;5035610;28;74490;-67
2021/05/23 06:29:26;;;;;;;;;;;16.70;41.30;;;;;;5034244;28;78218;-67
2021/05/23 06:31:52;;;;;;;;;;;16.70;41.60;;;;;;5033917;28;76272;-67
2021/05/23 06:34:17;;;;;;;;;;;16.70;41.40;;;;;;5035714;28;75188;-67
2021/05/23 06:36:44;;;;;;;;;;;16.70;41.00;;;;;;5035440;28;75162;-67
2021/05/23 06:39:09;;;;;;;;;;;16.70;41.40;;;;;;5034108;28;77128;-67
2021/05/23 06:41:35;;;;;;;;;;;16.70;41.40;;;;;;5034954;28;76576;-67
2021/05/23 06:44:01;;;;;;;;;;;16.70;41.60;;;;;;5035558;28;75104;-67
2021/05/23 06:46:26;;;;;;;;;;;16.70;42.00;;;;;;5035510;28;75497;-67
2021/05/23 06:48:52;;;;;;;;;;;16.70;41.80;;;;;;5033933;28;76344;-69
2021/05/23 06:51:18;;;;;;;;;;;16.70;41.80;;;;;;5035536;28;75284;-68
2021/05/23 06:53:43;;;;;;;;;;;16.80;41.50;;;;;;5034985;28;75655;-67
2021/05/23 06:56:09;;;;;;;;;;;16.80;41.90;;;;;;5035231;28;75159;-67
2021/05/23 06:58:35;;;;;;;;;;;16.80;41.80;;;;;;5033783;28;78364;-68
2021/05/23 07:01:02;;;;;;;;;;;16.80;41.70;;;;;;5034909;28;74944;-68
2021/05/23 07:03:28;;;;;;;;;;;16.80;41.40;;;;;;5034196;28;78525;-67
2021/05/23 07:05:54;;;;;;;;;;;16.80;41.60;;;;;;5033187;28;75432;-66
2021/05/23 07:08:19;;;;;;;;;;;16.90;41.40;;;;;;5035167;28;75183;-67
2021/05/23 07:10:45;;;;;;;;;;;16.90;41.40;;;;;;5032957;28;77203;-67
2021/05/23 07:13:10;;;;;;;;;;;16.90;42.20;;;;;;5034993;28;75486;-67
2021/05/23 07:15:36;;;;;;;;;;;16.90;41.70;;;;;;5033585;28;78229;-68
2021/05/23 07:18:02;;;;;;;;;;;16.90;42.00;;;;;;5034595;28;74639;-68
2021/05/23 07:20:28;;;;;;;;;;;16.90;41.80;;;;;;5035003;28;74524;-67
2021/05/23 07:22:54;;;;;;;;;;;16.80;42.00;;;;;;5034825;28;75626;-66
2021/05/23 07:25:20;;;;;;;;;;;16.80;41.60;;;;;;5034673;28;74972;-67
2021/05/23 07:27:45;;;;;;;;;;;16.80;41.80;;;;;;5032966;28;77637;-67
2021/05/23 07:30:11;;;;;;;;;;;16.80;41.80;;;;;;5033061;28;78497;-67
2021/05/23 07:32:37;;;;;;;;;;;16.80;41.70;;;;;;5033407;28;76859;-66
2021/05/23 07:35:03;;;;;;;;;;;16.90;41.30;;;;;;5032714;28;77575;-69
2021/05/23 07:37:29;;;;;;;;;;;16.80;41.70;;;;;;5032844;28;75688;-67
2021/05/23 07:39:54;;;;;;;;;;;16.80;41.80;;;;;;5034489;28;75231;-68
2021/05/23 07:42:20;;;;;;;;;;;16.80;41.50;;;;;;5034168;28;75640;-67
2021/05/23 07:44:46;;;;;;;;;;;16.90;41.80;;;;;;5034328;28;74645;-68
2021/05/23 07:47:11;;;;;;;;;;;16.90;41.80;;;;;;5034310;28;75289;-67
2021/05/23 07:49:40;;;;;;;;;;;16.80;42.30;;;;;;5034489;28;75106;-68
2021/05/23 07:52:10;;;;;;;;;;;16.80;41.90;;;;;;5032601;28;75929;-67
2021/05/23 07:54:37;;;;;;;;;;;16.90;41.80;;;;;;5032774;28;76138;-67
2021/05/23 07:57:02;;;;;;;;;;;16.90;41.60;;;;;;5032077;28;77675;-67
2021/05/23 07:59:28;;;;;;;;;;;16.90;41.90;;;;;;5044451;27;75141;-68
2021/05/23 08:01:54;;;;;;;;;;;17.00;41.80;;;;;;5046358;28;74545;-68
2021/05/23 08:04:20;;;;;;;;;;;17.20;41.60;;;;;;5032525;28;77427;-70
2021/05/23 08:06:46;;;;;;;;;;;17.20;41.40;;;;;;5032235;28;77845;-68
2021/05/23 08:09:11;;;;;;;;;;;17.30;41.60;;;;;;5032466;28;77338;-69
2021/05/23 08:11:37;;;;;;;;;;;17.30;41.30;;;;;;5033294;28;75088;-67
2021/05/23 08:14:03;;;;;;;;;;;17.40;41.40;;;;;;5033843;28;75407;-68
2021/05/23 08:16:29;;;;;;;;;;;17.50;41.20;;;;;;5033129;28;75297;-68
2021/05/23 08:18:54;;;;;;;;;;;17.50;40.80;;;;;;5033863;28;75159;-69
2021/05/23 08:21:20;;;;;;;;;;;17.60;41.00;;;;;;5031963;28;75735;-69
2021/05/23 08:23:46;;;;;;;;;;;17.70;40.80;;;;;;5032249;28;76289;-68
2021/05/23 08:26:11;;;;;;;;;;;17.70;40.70;;;;;;5035728;28;77106;-69
2021/05/23 08:28:37;;;;;;;;;;;17.70;40.70;;;;;;5051869;28;75297;-69
2021/05/23 08:31:03;;;;;;;;;;;17.60;40.80;;;;;;5053397;27;74694;-69
2021/05/23 08:33:30;;;;;;;;;;;17.50;41.10;;;;;;5053838;28;75038;-67
2021/05/23 08:35:56;;;;;;;;;;;17.50;41.20;;;;;;5052357;28;77123;-69
2021/05/23 08:38:21;;;;;;;;;;;17.50;41.30;;;;;;5053947;28;74506;-69
2021/05/23 08:40:47;;;;;;;;;;;17.40;41.20;;;;;;5051266;28;77621;-69
2021/05/23 08:43:14;;;;;;;;;;;17.50;41.10;;;;;;5051825;28;74851;-69
2021/05/23 08:45:40;;;;;;;;;;;17.50;41.30;;;;;;5052142;28;76616;-68
2021/05/23 08:48:06;;;;;;;;;;;17.50;41.40;;;;;;5051736;28;74790;-66
2021/05/23 08:50:32;;;;;;;;;;;17.50;41.10;;;;;;5052241;28;77600;-68
2021/05/23 08:52:58;;;;;;;;;;;17.50;41.20;;;;;;5051959;28;76404;-69
2021/05/23 08:55:24;;;;;;;;;;;17.50;41.40;;;;;;5053510;27;74502;-68
2021/05/23 08:57:51;;;;;;;;;;;17.60;41.40;;;;;;5051514;28;78176;-69
2021/05/23 09:00:17;;;;;;;;;;;17.70;41.30;;;;;;5053548;28;74378;-69
2021/05/23 09:03:09;;;;;;;;;;;17.60;41.10;;;;;;5053312;28;74911;-70
2021/05/23 09:05:35;;;;;;;;;;;17.50;41.50;;;;;;5048525;27;75139;-69
2021/05/23 09:08:21;;;;;;;;;;;17.60;41.60;;;;;;5041652;28;78068;-69
2021/05/23 09:11:07;;;;;;;;;;;17.50;41.60;;;;;;5039453;27;75635;-70
2021/05/23 09:13:34;;;;;;;;;;;17.30;42.00;;;;;;5049344;28;77137;-69
2021/05/23 09:16:07;;;;;;;;;;;17.30;42.00;;;;;;5052436;27;75178;-70
2021/05/23 09:18:38;;;;;;;;;;;17.40;42.00;;;;;;5041784;27;75631;-68
2021/05/23 09:21:04;;;;;;;;;;;17.30;42.00;;;;;;5033057;28;75284;-69
2021/05/23 09:23:39;;;;;;;;;;;17.30;42.10;;;;;;5031074;28;75579;-69
2021/05/23 09:26:04;;;;;;;;;;;17.40;42.10;;;;;;5031082;28;77305;-69
2021/05/23 09:28:30;;;;;;;;;;;17.50;42.20;;;;;;5030022;28;75339;-68
2021/05/23 09:30:56;;;;;;;;;;;17.60;42.10;;;;;;5030452;28;75098;-69
2021/05/23 09:33:22;;;;;;;;;;;17.70;41.70;;;;;;5029401;28;78051;-68
2021/05/23 09:35:48;;;;;;;;;;;17.80;41.80;;;;;;5032776;28;75151;-69
2021/05/23 09:38:15;;;;;;;;;;;17.90;41.50;;;;;;5031134;28;77044;-69
2021/05/23 09:40:42;;;;;;;;;;;17.90;41.60;;;;;;5030800;28;76337;-69
2021/05/23 09:43:08;;;;;;;;;;;18.00;41.50;;;;;;5030971;28;77977;-69
2021/05/23 09:45:40;;;;;;;;;;;18.30;41.30;;;;;;5032407;28;74681;-69
2021/05/23 09:48:06;;;;;;;;;;;18.50;40.90;;;;;;5030993;28;76053;-69
2021/05/23 09:50:33;;;;;;;;;;;18.70;40.40;;;;;;5064818;27;78555;-69
2021/05/23 09:52:59;;;;;;;;;;;18.90;40.10;;;;;;5032553;28;75465;-69
2021/05/23 09:55:25;;;;;;;;;;;19.00;40.10;;;;;;5031047;28;76215;-69
2021/05/23 09:57:50;;;;;;;;;;;19.00;40.00;;;;;;5032097;28;75147;-68
2021/05/23 10:00:16;;;;;;;;;;;19.10;40.30;;;;;;5032559;28;75170;-69
2021/05/23 10:02:59;;;;;;;;;;;19.10;40.60;;;;;;5031391;28;77198;-69
2021/05/23 10:05:25;;;;;;;;;;;19.10;40.80;;;;;;5032355;28;75242;-69
2021/05/23 10:07:51;;;;;;;;;;;19.00;41.10;;;;;;5030729;28;76614;-69
2021/05/23 10:10:17;;;;;;;;;;;18.90;41.70;;;;;;5032208;28;75540;-69
2021/05/23 10:12:42;;;;;;;;;;;18.80;41.60;;;;;;5030165;28;75331;-68
2021/05/23 10:15:10;;;;;;;;;;;18.70;42.00;;;;;;5030369;28;78417;-68
2021/05/23 10:17:37;;;;;;;;;;;18.60;42.20;;;;;;5030640;28;75404;-69
2021/05/23 10:20:04;;;;;;;;;;;18.50;42.40;;;;;;5031731;28;75223;-69
2021/05/23 10:22:32;;;;;;;;;;;18.60;42.50;;;;;;5032232;28;75143;-69
2021/05/23 10:24:59;;;;;;;;;;;18.60;42.60;;;;;;5032136;28;74523;-69
2021/05/23 10:27:25;;;;;;;;;;;18.80;42.50;;;;;;5030163;28;74519;-69
2021/05/23 10:29:52;;;;;;;;;;;18.90;42.70;;;;;;5030400;28;74604;-69
2021/05/23 10:32:20;;;;;;;;;;;19.10;42.20;;;;;;5038606;28;78157;-69
2021/05/23 10:34:47;;;;;;;;;;;19.20;42.30;;;;;;5051929;28;75173;-69
2021/05/23 10:37:16;;;;;;;;;;;19.50;42.40;;;;;;5050167;28;75266;-69
2021/05/23 10:39:52;;;;;;;;;;;19.80;41.70;;;;;;5053596;27;75631;-69
2021/05/23 10:42:19;;;;;;;;;;;20.00;41.80;;;;;;5052488;28;77476;-69
2021/05/23 10:44:46;;;;;;;;;;;20.30;41.40;;;;;;5054483;28;74974;-69
2021/05/23 10:47:15;;;;;;;;;;;20.40;41.10;;;;;;5053644;28;75756;-69
2021/05/23 10:49:58;;;;;;;;;;;20.40;40.90;;;;;;5055104;27;75242;-69
2021/05/23 10:52:28;;;;;;;;;;;20.60;40.70;;;;;;5054612;28;76070;-69
2021/05/23 10:55:13;;;;;;;;;;;20.60;40.90;;;;;;5053543;28;77505;-69
2021/05/23 10:57:40;;;;;;;;;;;20.80;40.70;;;;;;5053511;28;75793;-69
2021/05/23 11:00:06;;;;;;;;;;;21.00;40.10;;;;;;5053597;28;76606;-69
2021/05/23 11:02:36;;;;;;;;;;;21.20;40.10;;;;;;5053344;28;75912;-69
2021/05/23 11:05:06;;;;;;;;;;;21.40;40.20;;;;;;5053645;28;75386;-70
2021/05/23 11:07:31;;;;;;;;;;;21.40;40.10;;;;;;5055307;28;74504;-69
2021/05/23 11:09:59;;;;;;;;;;;21.60;39.80;;;;;;5053595;28;76893;-70
2021/05/23 11:12:25;;;;;;;;;;;21.60;39.50;;;;;;5054358;27;74646;-69
2021/05/23 11:14:57;;;;;;;;;;;21.70;39.60;;;;;;5053731;28;74626;-70
2021/05/23 11:17:23;;;;;;;;;;;21.80;39.60;;;;;;5053307;28;77636;-69
2021/05/23 11:19:48;;;;;;;;;;;21.90;39.40;;;;;;5054774;28;75138;-69
2021/05/23 11:22:14;;;;;;;;;;;22.00;39.40;;;;;;5055026;28;74410;-70
2021/05/23 11:24:44;;;;;;;;;;;22.00;39.50;;;;;;5053183;28;77315;-69
2021/05/23 11:27:13;;;;;;;;;;;22.60;39.30;;;;;;5053354;28;75252;-70
2021/05/23 11:29:50;;;;;;;;;;;23.50;38.00;;;;;;5054978;28;74505;-70
2021/05/23 11:32:16;;;;;;;;;;;23.90;37.00;;;;;;5055247;27;74403;-70
2021/05/23 11:34:42;;;;;;;;;;;24.80;35.50;;;;;;5053024;28;75285;-70
2021/05/23 11:37:09;;;;;;;;;;;25.30;35.10;;;;;;5054348;27;74728;-70
2021/05/23 11:39:35;;;;;;;;;;;26.50;33.40;;;;;;5053203;28;78504;-70
2021/05/23 11:42:02;;;;;;;;;;;27.70;32.00;;;;;;5052910;28;76848;-69
2021/05/23 11:44:38;;;;;;;;;;;28.60;30.90;;;;;;5053207;28;77373;-70
2021/05/23 11:47:04;;;;;;;;;;;29.20;29.80;;;;;;5054436;28;75361;-70
2021/05/23 11:49:30;;;;;;;;;;;29.30;29.70;;;;;;5053360;28;75930;-69
2021/05/23 11:51:57;;;;;;;;;;;30.00;28.80;;;;;;5053554;27;75197;-69
2021/05/23 11:54:22;;;;;;;;;;;30.90;27.60;;;;;;5054573;28;74691;-68
2021/05/23 11:56:48;;;;;;;;;;;31.40;27.00;;;;;;5054255;27;74594;-68
2021/05/23 11:59:13;;;;;;;;;;;31.80;26.50;;;;;;5054242;28;75137;-68
2021/05/23 12:01:40;;;;;;;;;;;32.90;25.50;;;;;;5036383;28;77783;-67
2021/05/23 12:04:07;;;;;;;;;;;34.20;24.60;;;;;;5054162;28;75794;-69
2021/05/23 12:06:37;;;;;;;;;;;35.90;23.30;;;;;;5053155;28;77651;-68
2021/05/23 12:09:06;;;;;;;;;;;37.50;22.10;;;;;;5053138;28;77742;-68
2021/05/23 12:11:35;;;;;;;;;;;38.30;21.50;;;;;;5051937;28;77935;-68
2021/05/23 12:14:01;;;;;;;;;;;38.70;20.90;;;;;;5052765;28;77113;-68
2021/05/23 12:16:27;;;;;;;;;;;38.40;21.20;;;;;;5053916;28;75104;-68
2021/05/23 12:18:53;;;;;;;;;;;37.80;21.40;;;;;;5052807;28;77760;-68
2021/05/23 12:21:24;;;;;;;;;;;36.60;22.00;;;;;;5052566;28;78523;-68
2021/05/23 12:23:53;;;;;;;;;;;35.00;23.50;;;;;;5052340;28;76333;-69
2021/05/23 12:26:20;;;;;;;;;;;34.00;24.90;;;;;;5052556;28;74912;-68
2021/05/23 12:28:49;;;;;;;;;;;34.30;24.80;;;;;;5053946;28;75317;-69
2021/05/23 12:31:16;;;;;;;;;;;35.20;24.00;;;;;;5052585;28;76018;-68
2021/05/23 12:33:49;;;;;;;;;;;35.50;23.60;;;;;;5051993;28;77719;-68
2021/05/23 12:36:15;;;;;;;;;;;35.80;23.20;;;;;;5052281;27;77253;-69
2021/05/23 12:38:41;;;;;;;;;;;36.00;23.00;;;;;;5053865;28;75653;-69
2021/05/23 12:41:11;;;;;;;;;;;36.50;23.00;;;;;;5053927;28;75050;-68
2021/05/23 12:43:39;;;;;;;;;;;37.40;21.20;;;;;;5052082;28;77499;-69
2021/05/23 12:46:06;;;;;;;;;;;37.50;22.20;;;;;;5052118;28;78248;-69
2021/05/23 12:48:33;;;;;;;;;;;38.00;22.00;;;;;;5053796;28;75300;-69
2021/05/23 12:50:59;;;;;;;;;;;38.50;21.60;;;;;;5053569;28;75456;-68
2021/05/23 12:53:26;;;;;;;;;;;38.30;21.20;;;;;;5051969;28;77682;-69
2021/05/23 12:55:52;;;;;;;;;;;38.90;21.10;;;;;;5053556;28;75190;-69
2021/05/23 12:58:18;;;;;;;;;;;39.30;20.40;;;;;;5052166;28;77633;-69
2021/05/23 13:00:46;;;;;;;;;;;39.60;19.90;;;;;;5053555;28;75943;-69
2021/05/23 13:03:13;;;;;;;;;;;39.40;20.30;;;;;;5052740;28;76633;-70
2021/05/23 13:05:50;;;;;;;;;;;39.80;20.40;;;;;;5052262;28;77014;-69
2021/05/23 13:08:15;;;;;;;;;;;40.60;19.90;;;;;;5052915;28;76451;-69
2021/05/23 13:10:42;;;;;;;;;;;41.20;19.40;;;;;;5053102;28;76569;-69
2021/05/23 13:13:08;;;;;;;;;;;41.00;19.30;;;;;;5052412;28;75251;-70
2021/05/23 13:15:34;;;;;;;;;;;41.10;18.90;;;;;;5053279;28;75436;-70
2021/05/23 13:18:00;;;;;;;;;;;40.20;19.60;;;;;;5051715;28;78162;-70
2021/05/23 13:20:36;;;;;;;;;;;38.50;20.70;;;;;;5052612;28;75850;-69
2021/05/23 13:23:02;;;;;;;;;;;37.20;21.80;;;;;;5053446;28;74530;-69
2021/05/23 13:25:28;;;;;;;;;;;36.70;22.20;;;;;;5051499;28;78050;-69
2021/05/23 13:27:54;;;;;;;;;;;35.70;21.90;;;;;;5051424;28;77626;-69
2021/05/23 13:30:21;;;;;;;;;;;34.40;23.60;;;;;;5052916;28;75047;-70
2021/05/23 13:32:48;;;;;;;;;;;33.30;24.20;;;;;;5052716;28;74492;-70
2021/05/23 13:35:14;;;;;;;;;;;32.40;23.90;;;;;;5051435;28;77848;-70
2021/05/23 13:37:39;;;;;;;;;;;31.30;25.90;;;;;;5052830;28;75481;-69
2021/05/23 13:40:05;;;;;;;;;;;30.60;26.70;;;;;;5051288;28;75189;-69
2021/05/23 13:42:31;;;;;;;;;;;30.10;27.20;;;;;;5052147;28;75276;-68
2021/05/23 13:44:56;;;;;;;;;;;29.40;27.70;;;;;;5051216;28;74665;-70
2021/05/23 13:47:22;;;;;;;;;;;29.00;27.80;;;;;;5052661;28;75228;-69
2021/05/23 13:49:48;;;;;;;;;;;28.70;28.60;;;;;;5053306;28;74470;-69
2021/05/23 13:52:13;;;;;;;;;;;28.40;28.50;;;;;;5051294;28;78410;-70
2021/05/23 13:54:39;;;;;;;;;;;27.90;29.10;;;;;;5050998;28;77927;-69
2021/05/23 13:57:05;;;;;;;;;;;27.60;29.70;;;;;;5052240;28;74876;-69
2021/05/23 13:59:31;;;;;;;;;;;27.60;29.80;;;;;;5051204;28;76838;-68
2021/05/23 14:01:57;;;;;;;;;;;27.50;30.10;;;;;;5052826;28;75477;-69
2021/05/23 14:04:23;;;;;;;;;;;27.50;29.80;;;;;;5051144;28;77356;-69
2021/05/23 14:06:49;;;;;;;;;;;27.50;30.10;;;;;;5050923;28;77110;-69
2021/05/23 14:09:16;;;;;;;;;;;27.40;30.00;;;;;;5051376;28;75549;-69
2021/05/23 14:11:41;;;;;;;;;;;27.50;29.90;;;;;;5050237;28;77514;-68
2021/05/23 14:14:07;;;;;;;;;;;27.60;29.90;;;;;;5053782;27;74505;-70